sensor_id;sensor_type;location;lat;lon;timestamp;P1;P2;P0
54587;PMS7003;40484;50.198;19.576;2023-05-18T00:04:06;20;19;12
54587;PMS7003;40484;50.198;19.576;2023-05-18T00:09:07;18;17;12
54587;PMS7003;40484;50.198;19.576;2023-05-18T00:14:09;16;15;12
54587;PMS7003;40484;50.198;19.576;2023-05-18T00:19:11;18;17;11
54587;PMS7003;40484;50.198;19.576;2023-05-18T00:24:40;18;14;10
54587;PMS7003;40484;50.198;19.576;2023-05-18T00:29:42;11;10;6
54587;PMS7003;40484;50.198;19.576;2023-05-18T00:34:43;14;13;10
54587;PMS7003;40484;50.198;19.576;2023-05-18T00:39:45;10;9;6
54587;PMS7003;40484;50.198;19.576;2023-05-18T00:44:46;18;16;10
54587;PMS7003;40484;50.198;19.576;2023-05-18T00:49:48;12;12;9
54587;PMS7003;40484;50.198;19.576;2023-05-18T00:54:49;14;10;8
54587;PMS7003;40484;50.198;19.576;2023-05-18T00:59:52;11;11;10
54587;PMS7003;40484;50.198;19.576;2023-05-18T01:04:55;10;9;7
54587;PMS7003;40484;50.198;19.576;2023-05-18T01:09:58;11;10;9
54587;PMS7003;40484;50.198;19.576;2023-05-18T01:15:12;13;12;10
54587;PMS7003;40484;50.198;19.576;2023-05-18T01:30:40;11;10;7
54587;PMS7003;40484;50.198;19.576;2023-05-18T01:35:42;13;11;7
54587;PMS7003;40484;50.198;19.576;2023-05-18T01:41:24;11;10;8
54587;PMS7003;40484;50.198;19.576;2023-05-18T01:51:45;14;12;9
54587;PMS7003;40484;50.198;19.576;2023-05-18T01:56:48;8;7;4
54587;PMS7003;40484;50.198;19.576;2023-05-18T02:01:51;10;10;7
54587;PMS7003;40484;50.198;19.576;2023-05-18T02:06:54;9;9;8
54587;PMS7003;40484;50.198;19.576;2023-05-18T02:11:56;13;12;8
54587;PMS7003;40484;50.198;19.576;2023-05-18T02:16:57;16;13;10
54587;PMS7003;40484;50.198;19.576;2023-05-18T02:22:00;14;9;8
54587;PMS7003;40484;50.198;19.576;2023-05-18T02:27:01;8;8;6
54587;PMS7003;40484;50.198;19.576;2023-05-18T02:32:04;14;11;9
54587;PMS7003;40484;50.198;19.576;2023-05-18T02:37:06;13;13;8
54587;PMS7003;40484;50.198;19.576;2023-05-18T02:42:08;10;10;6
54587;PMS7003;40484;50.198;19.576;2023-05-18T02:47:09;9;9;6
54587;PMS7003;40484;50.198;19.576;2023-05-18T02:52:11;11;11;9
54587;PMS7003;40484;50.198;19.576;2023-05-18T02:57:12;17;14;11
54587;PMS7003;40484;50.198;19.576;2023-05-18T03:02:38;9;9;8
54587;PMS7003;40484;50.198;19.576;2023-05-18T03:07:40;12;11;9
54587;PMS7003;40484;50.198;19.576;2023-05-18T03:12:42;10;9;7
54587;PMS7003;40484;50.198;19.576;2023-05-18T03:17:44;12;11;9
54587;PMS7003;40484;50.198;19.576;2023-05-18T03:22:46;13;12;7
54587;PMS7003;40484;50.198;19.576;2023-05-18T03:27:48;12;12;10
54587;PMS7003;40484;50.198;19.576;2023-05-18T03:32:49;11;11;9
54587;PMS7003;40484;50.198;19.576;2023-05-18T03:37:52;13;11;10
54587;PMS7003;40484;50.198;19.576;2023-05-18T03:42:53;12;10;7
54587;PMS7003;40484;50.198;19.576;2023-05-18T03:47:55;15;11;8
54587;PMS7003;40484;50.198;19.576;2023-05-18T03:52:57;9;8;7
54587;PMS7003;40484;50.198;19.576;2023-05-18T03:57:58;10;9;5
54587;PMS7003;40484;50.198;19.576;2023-05-18T04:03:00;11;10;7
54587;PMS7003;40484;50.198;19.576;2023-05-18T04:08:05;12;12;7
54587;PMS7003;40484;50.198;19.576;2023-05-18T04:13:08;9;9;6
54587;PMS7003;40484;50.198;19.576;2023-05-18T04:18:11;8;8;7
54587;PMS7003;40484;50.198;19.576;2023-05-18T04:23:13;11;8;7
54587;PMS7003;40484;50.198;19.576;2023-05-18T04:28:16;8;8;6
54587;PMS7003;40484;50.198;19.576;2023-05-18T04:33:18;9;8;7
54587;PMS7003;40484;50.198;19.576;2023-05-18T04:38:20;10;8;6
54587;PMS7003;40484;50.198;19.576;2023-05-18T04:43:49;8;8;6
54587;PMS7003;40484;50.198;19.576;2023-05-18T04:48:50;5;5;4
54587;PMS7003;40484;50.198;19.576;2023-05-18T04:53:53;8;7;5
54587;PMS7003;40484;50.198;19.576;2023-05-18T04:58:55;7;7;5
54587;PMS7003;40484;50.198;19.576;2023-05-18T05:03:58;9;9;6
54587;PMS7003;40484;50.198;19.576;2023-05-18T05:09:00;11;11;7
54587;PMS7003;40484;50.198;19.576;2023-05-18T05:14:02;11;11;9
54587;PMS7003;40484;50.198;19.576;2023-05-18T05:19:03;7;7;5
54587;PMS7003;40484;50.198;19.576;2023-05-18T05:24:05;6;6;5
54587;PMS7003;40484;50.198;19.576;2023-05-18T05:29:08;6;5;4
54587;PMS7003;40484;50.198;19.576;2023-05-18T05:34:09;6;5;4
54587;PMS7003;40484;50.198;19.576;2023-05-18T05:39:12;5;4;4
54587;PMS7003;40484;50.198;19.576;2023-05-18T05:44:14;3;3;3
54587;PMS7003;40484;50.198;19.576;2023-05-18T05:49:15;6;6;5
54587;PMS7003;40484;50.198;19.576;2023-05-18T05:54:17;7;5;4
54587;PMS7003;40484;50.198;19.576;2023-05-18T05:59:19;3;3;3
54587;PMS7003;40484;50.198;19.576;2023-05-18T06:04:21;7;6;4
54587;PMS7003;40484;50.198;19.576;2023-05-18T06:09:23;4;4;4
54587;PMS7003;40484;50.198;19.576;2023-05-18T06:14:25;5;5;3
54587;PMS7003;40484;50.198;19.576;2023-05-18T06:19:26;4;3;3
54587;PMS7003;40484;50.198;19.576;2023-05-18T06:24:28;3;3;2
54587;PMS7003;40484;50.198;19.576;2023-05-18T06:29:54;4;3;3
54587;PMS7003;40484;50.198;19.576;2023-05-18T06:34:55;4;4;3
54587;PMS7003;40484;50.198;19.576;2023-05-18T06:39:57;5;4;3
54587;PMS7003;40484;50.198;19.576;2023-05-18T06:44:59;5;5;4
54587;PMS7003;40484;50.198;19.576;2023-05-18T06:50:00;5;4;4
54587;PMS7003;40484;50.198;19.576;2023-05-18T06:55:02;7;6;5
54587;PMS7003;40484;50.198;19.576;2023-05-18T07:00:05;4;4;3
54587;PMS7003;40484;50.198;19.576;2023-05-18T07:05:54;4;4;4
54587;PMS7003;40484;50.198;19.576;2023-05-18T07:10:56;3;3;3
54587;PMS7003;40484;50.198;19.576;2023-05-18T07:15:58;5;5;3
54587;PMS7003;40484;50.198;19.576;2023-05-18T07:21:00;4;3;2
54587;PMS7003;40484;50.198;19.576;2023-05-18T07:26:02;4;4;3
54587;PMS7003;40484;50.198;19.576;2023-05-18T07:31:03;3;3;3
54587;PMS7003;40484;50.198;19.576;2023-05-18T07:36:06;5;5;3
54587;PMS7003;40484;50.198;19.576;2023-05-18T07:41:07;4;4;3
54587;PMS7003;40484;50.198;19.576;2023-05-18T07:46:09;28;25;19
54587;PMS7003;40484;50.198;19.576;2023-05-18T07:51:11;10;10;6
54587;PMS7003;40484;50.198;19.576;2023-05-18T07:56:12;3;3;2
54587;PMS7003;40484;50.198;19.576;2023-05-18T08:01:14;4;4;4
54587;PMS7003;40484;50.198;19.576;2023-05-18T08:06:16;7;7;6
54587;PMS7003;40484;50.198;19.576;2023-05-18T08:11:18;8;8;7
54587;PMS7003;40484;50.198;19.576;2023-05-18T08:16:19;2;2;2
54587;PMS7003;40484;50.198;19.576;2023-05-18T08:21:21;3;3;2
54587;PMS7003;40484;50.198;19.576;2023-05-18T08:26:22;4;4;3
54587;PMS7003;40484;50.198;19.576;2023-05-18T08:31:24;2;2;1
54587;PMS7003;40484;50.198;19.576;2023-05-18T08:36:25;6;5;5
54587;PMS7003;40484;50.198;19.576;2023-05-18T08:47:13;5;4;4
54587;PMS7003;40484;50.198;19.576;2023-05-18T08:52:16;5;5;4
54587;PMS7003;40484;50.198;19.576;2023-05-18T08:57:19;7;7;5
54587;PMS7003;40484;50.198;19.576;2023-05-18T09:02:22;3;3;3
54587;PMS7003;40484;50.198;19.576;2023-05-18T09:07:24;6;5;5
54587;PMS7003;40484;50.198;19.576;2023-05-18T09:12:27;4;3;3
54587;PMS7003;40484;50.198;19.576;2023-05-18T09:17:30;5;5;5
54587;PMS7003;40484;50.198;19.576;2023-05-18T09:22:32;2;2;2
54587;PMS7003;40484;50.198;19.576;2023-05-18T09:27:41;9;9;7
54587;PMS7003;40484;50.198;19.576;2023-05-18T09:32:45;6;6;5
54587;PMS7003;40484;50.198;19.576;2023-05-18T09:37:47;4;4;3
54587;PMS7003;40484;50.198;19.576;2023-05-18T09:42:49;4;4;3
54587;PMS7003;40484;50.198;19.576;2023-05-18T09:47:51;7;7;6
54587;PMS7003;40484;50.198;19.576;2023-05-18T09:52:53;5;5;4
54587;PMS7003;40484;50.198;19.576;2023-05-18T09:57:54;5;5;4
54587;PMS7003;40484;50.198;19.576;2023-05-18T10:02:56;5;5;4
54587;PMS7003;40484;50.198;19.576;2023-05-18T10:07:58;7;6;5
54587;PMS7003;40484;50.198;19.576;2023-05-18T10:13:00;4;3;3
54587;PMS7003;40484;50.198;19.576;2023-05-18T10:18:29;2;2;1
54587;PMS7003;40484;50.198;19.576;2023-05-18T10:23:32;2;2;1
54587;PMS7003;40484;50.198;19.576;2023-05-18T10:28:41;2;2;2
54587;PMS7003;40484;50.198;19.576;2023-05-18T10:33:44;0;0;0
54587;PMS7003;40484;50.198;19.576;2023-05-18T10:38:46;1;0;0
54587;PMS7003;40484;50.198;19.576;2023-05-18T10:43:48;1;1;1
54587;PMS7003;40484;50.198;19.576;2023-05-18T10:48:51;2;1;0
54587;PMS7003;40484;50.198;19.576;2023-05-18T10:53:54;1;1;1
54587;PMS7003;40484;50.198;19.576;2023-05-18T10:58:59;2;2;2
54587;PMS7003;40484;50.198;19.576;2023-05-18T11:04:02;1;1;1
54587;PMS7003;40484;50.198;19.576;2023-05-18T11:09:04;1;1;1
54587;PMS7003;40484;50.198;19.576;2023-05-18T11:14:06;1;1;0
54587;PMS7003;40484;50.198;19.576;2023-05-18T11:19:08;1;1;1
54587;PMS7003;40484;50.198;19.576;2023-05-18T11:24:18;1;1;0
54587;PMS7003;40484;50.198;19.576;2023-05-18T11:29:42;2;2;2
54587;PMS7003;40484;50.198;19.576;2023-05-18T11:35:11;1;1;1
54587;PMS7003;40484;50.198;19.576;2023-05-18T11:45:52;3;1;1
54587;PMS7003;40484;50.198;19.576;2023-05-18T11:50:58;2;2;2
54587;PMS7003;40484;50.198;19.576;2023-05-18T11:55:59;3;3;2
54587;PMS7003;40484;50.198;19.576;2023-05-18T12:01:01;3;2;2
54587;PMS7003;40484;50.198;19.576;2023-05-18T12:06:04;3;3;3
54587;PMS7003;40484;50.198;19.576;2023-05-18T12:11:07;2;2;2
54587;PMS7003;40484;50.198;19.576;2023-05-18T12:16:09;2;2;2
54587;PMS7003;40484;50.198;19.576;2023-05-18T12:21:12;2;2;1
54587;PMS7003;40484;50.198;19.576;2023-05-18T12:26:15;2;2;1
54587;PMS7003;40484;50.198;19.576;2023-05-18T12:31:18;1;1;1
54587;PMS7003;40484;50.198;19.576;2023-05-18T12:36:21;2;2;2
54587;PMS7003;40484;50.198;19.576;2023-05-18T12:41:47;2;2;2
54587;PMS7003;40484;50.198;19.576;2023-05-18T12:46:48;2;2;2
54587;PMS7003;40484;50.198;19.576;2023-05-18T12:51:53;1;1;1
54587;PMS7003;40484;50.198;19.576;2023-05-18T12:56:57;0;0;0
54587;PMS7003;40484;50.198;19.576;2023-05-18T13:02:02;1;1;1
54587;PMS7003;40484;50.198;19.576;2023-05-18T13:07:03;2;2;2
54587;PMS7003;40484;50.198;19.576;2023-05-18T13:12:05;1;1;1
54587;PMS7003;40484;50.198;19.576;2023-05-18T13:17:07;1;1;1
54587;PMS7003;40484;50.198;19.576;2023-05-18T13:22:09;1;1;1
54587;PMS7003;40484;50.198;19.576;2023-05-18T13:27:10;1;1;1
54587;PMS7003;40484;50.198;19.576;2023-05-18T13:32:12;0;0;0
54587;PMS7003;40484;50.198;19.576;2023-05-18T13:37:13;1;1;1
54587;PMS7003;40484;50.198;19.576;2023-05-18T13:42:15;1;1;1
54587;PMS7003;40484;50.198;19.576;2023-05-18T13:47:19;4;2;2
54587;PMS7003;40484;50.198;19.576;2023-05-18T13:52:20;1;1;1
54587;PMS7003;40484;50.198;19.576;2023-05-18T13:57:22;2;2;2
54587;PMS7003;40484;50.198;19.576;2023-05-18T14:02:25;2;2;2
54587;PMS7003;40484;50.198;19.576;2023-05-18T14:07:27;1;1;1
54587;PMS7003;40484;50.198;19.576;2023-05-18T14:12:28;0;0;0
54587;PMS7003;40484;50.198;19.576;2023-05-18T14:17:30;0;0;0
54587;PMS7003;40484;50.198;19.576;2023-05-18T14:22:57;0;0;0
54587;PMS7003;40484;50.198;19.576;2023-05-18T14:27:59;0;0;0
54587;PMS7003;40484;50.198;19.576;2023-05-18T14:33:00;1;1;0
54587;PMS7003;40484;50.198;19.576;2023-05-18T14:38:02;0;0;0
54587;PMS7003;40484;50.198;19.576;2023-05-18T14:43:03;2;2;2
54587;PMS7003;40484;50.198;19.576;2023-05-18T14:48:05;0;0;0
54587;PMS7003;40484;50.198;19.576;2023-05-18T14:53:09;0;0;0
54587;PMS7003;40484;50.198;19.576;2023-05-18T14:58:10;1;0;0
54587;PMS7003;40484;50.198;19.576;2023-05-18T15:03:14;0;0;0
54587;PMS7003;40484;50.198;19.576;2023-05-18T15:08:16;1;1;1
54587;PMS7003;40484;50.198;19.576;2023-05-18T15:13:18;1;1;1
54587;PMS7003;40484;50.198;19.576;2023-05-18T15:18:19;0;0;0
54587;PMS7003;40484;50.198;19.576;2023-05-18T15:23:21;0;0;0
54587;PMS7003;40484;50.198;19.576;2023-05-18T15:28:22;0;0;0
54587;PMS7003;40484;50.198;19.576;2023-05-18T15:33:24;1;1;0
54587;PMS7003;40484;50.198;19.576;2023-05-18T15:38:26;1;1;1
54587;PMS7003;40484;50.198;19.576;2023-05-18T15:43:28;1;1;0
54587;PMS7003;40484;50.198;19.576;2023-05-18T15:48:30;0;0;0
54587;PMS7003;40484;50.198;19.576;2023-05-18T15:53:32;0;0;0
54587;PMS7003;40484;50.198;19.576;2023-05-18T15:58:33;1;1;1
54587;PMS7003;40484;50.198;19.576;2023-05-18T16:03:35;1;0;0
54587;PMS7003;40484;50.198;19.576;2023-05-18T16:09:01;0;0;0
54587;PMS7003;40484;50.198;19.576;2023-05-18T16:14:03;9;9;6
54587;PMS7003;40484;50.198;19.576;2023-05-18T16:19:05;1;1;1
54587;PMS7003;40484;50.198;19.576;2023-05-18T16:24:07;4;4;4
54587;PMS7003;40484;50.198;19.576;2023-05-18T16:29:08;1;1;1
54587;PMS7003;40484;50.198;19.576;2023-05-18T16:34:10;6;6;6
54587;PMS7003;40484;50.198;19.576;2023-05-18T16:39:11;9;7;7
54587;PMS7003;40484;50.198;19.576;2023-05-18T16:44:13;5;5;4
54587;PMS7003;40484;50.198;19.576;2023-05-18T16:49:15;60;47;27
54587;PMS7003;40484;50.198;19.576;2023-05-18T16:54:16;41;30;19
54587;PMS7003;40484;50.198;19.576;2023-05-18T16:59:18;100;87;46
54587;PMS7003;40484;50.198;19.576;2023-05-18T17:04:21;25;23;17
54587;PMS7003;40484;50.198;19.576;2023-05-18T17:09:22;12;12;6
54587;PMS7003;40484;50.198;19.576;2023-05-18T17:14:24;13;13;8
54587;PMS7003;40484;50.198;19.576;2023-05-18T17:19:26;49;40;24
54587;PMS7003;40484;50.198;19.576;2023-05-18T17:24:27;52;42;24
54587;PMS7003;40484;50.198;19.576;2023-05-18T17:29:29;82;65;39
54587;PMS7003;40484;50.198;19.576;2023-05-18T17:34:30;42;32;20
54587;PMS7003;40484;50.198;19.576;2023-05-18T17:39:32;103;79;43
54587;PMS7003;40484;50.198;19.576;2023-05-18T17:44:34;103;92;47
54587;PMS7003;40484;50.198;19.576;2023-05-18T17:49:35;4;4;4
54587;PMS7003;40484;50.198;19.576;2023-05-18T17:54:37;45;38;27
54587;PMS7003;40484;50.198;19.576;2023-05-18T18:00:03;8;7;6
54587;PMS7003;40484;50.198;19.576;2023-05-18T18:05:06;2;2;1
54587;PMS7003;40484;50.198;19.576;2023-05-18T18:10:08;10;9;6
54587;PMS7003;40484;50.198;19.576;2023-05-18T18:15:09;18;18;12
54587;PMS7003;40484;50.198;19.576;2023-05-18T18:20:12;6;5;4
54587;PMS7003;40484;50.198;19.576;2023-05-18T18:25:14;6;6;4
54587;PMS7003;40484;50.198;19.576;2023-05-18T18:30:16;2;2;2
54587;PMS7003;40484;50.198;19.576;2023-05-18T18:35:17;6;6;4
54587;PMS7003;40484;50.198;19.576;2023-05-18T18:40:19;6;5;5
54587;PMS7003;40484;50.198;19.576;2023-05-18T18:45:20;6;5;4
54587;PMS7003;40484;50.198;19.576;2023-05-18T18:50:22;3;2;2
54587;PMS7003;40484;50.198;19.576;2023-05-18T18:55:23;4;4;3
54587;PMS7003;40484;50.198;19.576;2023-05-18T19:00:25;5;4;4
54587;PMS7003;40484;50.198;19.576;2023-05-18T19:05:27;6;5;4
54587;PMS7003;40484;50.198;19.576;2023-05-18T19:10:30;6;6;4
54587;PMS7003;40484;50.198;19.576;2023-05-18T19:15:33;4;4;4
54587;PMS7003;40484;50.198;19.576;2023-05-18T19:20:36;6;6;4
54587;PMS7003;40484;50.198;19.576;2023-05-18T19:25:37;6;5;4
54587;PMS7003;40484;50.198;19.576;2023-05-18T19:30:39;11;6;5
54587;PMS7003;40484;50.198;19.576;2023-05-18T19:35:41;9;6;4
54587;PMS7003;40484;50.198;19.576;2023-05-18T19:40:42;5;4;3
54587;PMS7003;40484;50.198;19.576;2023-05-18T19:46:08;5;5;5
54587;PMS7003;40484;50.198;19.576;2023-05-18T19:51:10;13;13;9
54587;PMS7003;40484;50.198;19.576;2023-05-18T19:56:11;10;8;7
54587;PMS7003;40484;50.198;19.576;2023-05-18T20:01:13;8;5;4
54587;PMS7003;40484;50.198;19.576;2023-05-18T20:06:16;7;6;5
54587;PMS7003;40484;50.198;19.576;2023-05-18T20:11:19;9;8;6
54587;PMS7003;40484;50.198;19.576;2023-05-18T20:16:21;6;6;5
54587;PMS7003;40484;50.198;19.576;2023-05-18T20:21:23;8;6;5
54587;PMS7003;40484;50.198;19.576;2023-05-18T20:26:25;7;6;5
54587;PMS7003;40484;50.198;19.576;2023-05-18T20:31:27;11;9;7
54587;PMS7003;40484;50.198;19.576;2023-05-18T20:36:29;10;8;6
54587;PMS7003;40484;50.198;19.576;2023-05-18T20:41:31;9;6;4
54587;PMS7003;40484;50.198;19.576;2023-05-18T20:46:33;7;6;5
54587;PMS7003;40484;50.198;19.576;2023-05-18T20:51:36;9;8;7
54587;PMS7003;40484;50.198;19.576;2023-05-18T20:56:37;10;7;6
54587;PMS7003;40484;50.198;19.576;2023-05-18T21:01:39;6;6;5
54587;PMS7003;40484;50.198;19.576;2023-05-18T21:06:41;8;7;5
54587;PMS7003;40484;50.198;19.576;2023-05-18T21:11:43;5;5;4
54587;PMS7003;40484;50.198;19.576;2023-05-18T21:16:45;10;8;5
54587;PMS7003;40484;50.198;19.576;2023-05-18T21:21:46;10;10;9
54587;PMS7003;40484;50.198;19.576;2023-05-18T21:26:48;6;6;4
54587;PMS7003;40484;50.198;19.576;2023-05-18T21:32:14;6;6;5
54587;PMS7003;40484;50.198;19.576;2023-05-18T21:37:16;9;8;7
54587;PMS7003;40484;50.198;19.576;2023-05-18T21:42:17;3;2;2
54587;PMS7003;40484;50.198;19.576;2023-05-18T21:47:19;6;6;4
54587;PMS7003;40484;50.198;19.576;2023-05-18T21:52:20;10;10;8
54587;PMS7003;40484;50.198;19.576;2023-05-18T21:57:22;7;7;5
54587;PMS7003;40484;50.198;19.576;2023-05-18T22:02:24;8;7;6
54587;PMS7003;40484;50.198;19.576;2023-05-18T22:07:25;5;5;4
54587;PMS7003;40484;50.198;19.576;2023-05-18T22:12:27;6;6;5
54587;PMS7003;40484;50.198;19.576;2023-05-18T22:17:29;7;5;4
54587;PMS7003;40484;50.198;19.576;2023-05-18T22:22:30;5;5;4
54587;PMS7003;40484;50.198;19.576;2023-05-18T22:27:32;5;5;4
54587;PMS7003;40484;50.198;19.576;2023-05-18T22:32:35;6;5;4
54587;PMS7003;40484;50.198;19.576;2023-05-18T22:37:38;7;6;6
54587;PMS7003;40484;50.198;19.576;2023-05-18T22:42:39;5;5;4
54587;PMS7003;40484;50.198;19.576;2023-05-18T22:47:41;5;5;3
54587;PMS7003;40484;50.198;19.576;2023-05-18T22:52:44;6;6;5
54587;PMS7003;40484;50.198;19.576;2023-05-18T22:57:46;6;6;4
54587;PMS7003;40484;50.198;19.576;2023-05-18T23:02:47;5;5;4
54587;PMS7003;40484;50.198;19.576;2023-05-18T23:07:49;6;5;4
54587;PMS7003;40484;50.198;19.576;2023-05-18T23:12:51;8;7;6
54587;PMS7003;40484;50.198;19.576;2023-05-18T23:18:19;5;5;3
54587;PMS7003;40484;50.198;19.576;2023-05-18T23:23:21;6;6;5
54587;PMS7003;40484;50.198;19.576;2023-05-18T23:28:28;4;3;3
54587;PMS7003;40484;50.198;19.576;2023-05-18T23:33:30;7;5;4
54587;PMS7003;40484;50.198;19.576;2023-05-18T23:38:31;6;5;4
54587;PMS7003;40484;50.198;19.576;2023-05-18T23:43:36;5;4;4
54587;PMS7003;40484;50.198;19.576;2023-05-18T23:48:39;6;6;5
54587;PMS7003;40484;50.198;19.576;2023-05-18T23:53:41;6;5;4
54587;PMS7003;40484;50.198;19.576;2023-05-18T23:58:46;6;5;4
